Terminal Aerodrome Forecast
Issued by NWS

Home | Current Version | Previous Version | Text Only | Print | Product List | Glossary On
Versions: 1 2 3 4 5 6 7 8 9 10 11 12 13 14 15 16 17
000
FTUS43 KAPX 262337
TAFTVC
TAF
KTVC 262337Z 2700/2724 26005KT P6SM -SHRA SCT016 BKN060
     FM270400 00000KT P6SM BKN050
     FM270700 00000KT P6SM SCT050
     FM271200 VRB03KT P6SM SCT150
     FM271500 01007KT P6SM FEW050
     FM271900 36012KT P6SM SCT250=

USA.gov is the U.S. government's official web portal to all federal, state and local government web resources and services.